Weather at Mahlon Sweet Field

Public forecast

Using degrees Fahrenheit for public forecast. Weather courtesy of forecast.io.

Current aviation weather report (METAR) for Mahlon Sweet Field

2024/05/20 07:54 (retrieved 50 minutes ago)

KEUG 200754Z AUTO 34004KT 10SM CLR 06/04 A3029 RMK AO2 SLP258 T00610039 401720061

Aviation forecast (TAF) for Mahlon Sweet Field

2024/05/20 06:22 (retrieved 2 hours ago)

TAF KEUG 200520Z 2006/2106 VRB03KT P6SM FEW030 SCT050 FM201600 36007KT P6SM SCT050 FM202000 36012G20KT P6SM FEW050